Time;durP1;ratioP1;P1;durP2;ratioP2;P2;SDS_P1;SDS_P2;PMS_P1;PMS_P2;Temp;Humidity;BMP_temperature;BMP_pressure;BME280_temperature;BME280_humidity;BME280_pressure;Samples;Min_cycle;Max_cycle;Signal;HPM_P1;HPM_P2
2022/01/24 00:01:51;;;;;;;33.57;17.40;;;;;;;-1.58;100.00;96817.63;5069034;28;20162;-59
2022/01/24 00:04:17;;;;;;;29.43;16.63;;;;;;;-1.59;100.00;96810.69;5052798;28;20305;-57
2022/01/24 00:06:42;;;;;;;27.70;15.97;;;;;;;-1.58;100.00;96812.25;5068892;28;20293;-59
2022/01/24 00:09:11;;;;;;;26.03;16.10;;;;;;;-1.59;100.00;96816.03;5071675;28;20231;-58
2022/01/24 00:11:58;;;;;;;26.80;15.87;;;;;;;-1.58;100.00;96817.63;5072575;28;20251;-59
2022/01/24 00:27:43;;;;;;;23.17;12.53;;;;;;;-1.52;100.00;96821.81;5056481;28;20213;-62
2022/01/24 00:30:09;;;;;;;21.20;12.87;;;;;;;-1.51;100.00;96823.41;5071709;28;20202;-62
2022/01/24 00:32:34;;;;;;;22.07;12.70;;;;;;;-1.52;100.00;96816.47;5071505;28;20198;-62
2022/01/24 00:34:59;;;;;;;19.97;12.70;;;;;;;-1.54;100.00;96818.63;5071660;28;20194;-62
2022/01/24 00:37:29;;;;;;;21.87;12.33;;;;;;;-1.56;100.00;96810.09;5071618;28;20285;-63
2022/01/24 00:39:55;;;;;;;19.73;12.23;;;;;;;-1.59;100.00;96810.69;5071782;28;20233;-63
2022/01/24 00:42:31;;;;;;;22.20;12.13;;;;;;;-1.60;100.00;96817.91;5071938;28;20200;-58
2022/01/24 00:45:18;;;;;;;20.40;11.40;;;;;;;-1.62;100.00;96814.75;5071875;28;20217;-63
2022/01/24 00:55:40;;;;;;;20.97;12.53;;;;;;;-1.56;100.00;96802.06;5055969;28;20190;-63
2022/01/24 00:58:05;;;;;;;16.93;10.63;;;;;;;-1.53;100.00;96806.84;5070995;28;20181;-64
2022/01/24 01:00:30;;;;;;;17.03;11.20;;;;;;;-1.52;100.00;96795.03;5070637;28;20198;-62
2022/01/24 01:02:56;;;;;;;20.60;11.43;;;;;;;-1.49;100.00;96797.16;5070772;28;20221;-62
2022/01/24 01:05:36;;;;;;;19.17;11.17;;;;;;;-1.47;100.00;96793.09;5070762;28;20218;-62
2022/01/24 01:18:05;;;;;;;18.50;11.33;;;;;;;-1.44;100.00;96786.34;5071351;28;20194;-61
2022/01/24 01:18:59;;;;;;;17.87;10.77;;;;;;;-1.43;100.00;96779.88;5055343;28;20256;-61
2022/01/24 01:21:25;;;;;;;18.50;11.13;;;;;;;-1.45;100.00;96784.75;5070916;28;20198;-64
2022/01/24 01:23:55;;;;;;;17.83;11.27;;;;;;;-1.47;100.00;96781.56;5070477;28;20221;-63
2022/01/24 01:26:32;;;;;;;14.80;10.10;;;;;;;-1.51;100.00;96785.91;5070894;28;20193;-65
2022/01/24 01:29:44;;;;;;;18.77;11.00;;;;;;;-1.58;100.00;96780.94;5070889;28;20256;-65
2022/01/24 01:37:19;;;;;;;20.67;11.43;;;;;;;-1.70;100.00;96777.13;5055028;28;20208;-58
2022/01/24 01:40:11;;;;;;;19.77;11.13;;;;;;;-1.76;100.00;96768.38;5055022;28;20259;-64
2022/01/24 01:56:29;;;;;;;18.67;10.63;;;;;;;-1.89;100.00;96746.91;5055133;28;20207;-58
2022/01/24 01:58:55;;;;;;;19.37;11.70;;;;;;;-1.90;100.00;96756.03;5054379;28;20250;-58
2022/01/24 02:01:20;;;;;;;19.80;12.20;;;;;;;-1.92;100.00;96758.19;5070083;28;20201;-58
2022/01/24 02:03:46;;;;;;;19.07;11.53;;;;;;;-1.93;100.00;96756.59;5070442;28;20236;-58
2022/01/24 02:06:12;;;;;;;16.03;10.03;;;;;;;-1.94;100.00;96760.34;5070594;28;20201;-58
2022/01/24 02:08:38;;;;;;;23.07;12.23;;;;;;;-1.94;100.00;96758.47;5069928;28;20202;-59
2022/01/24 02:11:04;;;;;;;18.60;10.87;;;;;;;-1.92;100.00;96767.03;5070240;28;20201;-58
2022/01/24 02:13:30;;;;;;;18.17;10.50;;;;;;;-1.88;100.00;96769.91;5054336;28;20197;-58
2022/01/24 02:16:08;;;;;;;17.83;10.53;;;;;;;-1.89;100.00;96774.44;5070624;28;20205;-58
2022/01/24 02:18:41;;;;;;;17.73;10.47;;;;;;;-1.87;100.00;96760.78;5070071;28;20205;-58
2022/01/24 02:23:45;;;;;;;16.27;10.53;;;;;;;-1.90;100.00;96761.38;5054037;28;20265;-58
2022/01/24 02:26:18;;;;;;;19.20;11.47;;;;;;;-1.92;100.00;96748.28;5070385;28;20210;-58
2022/01/24 02:28:56;;;;;;;20.23;11.37;;;;;;;-1.96;100.00;96741.13;5053966;28;20251;-58
2022/01/24 02:34:28;;;;;;;20.60;11.93;;;;;;;-1.99;100.00;96731.00;5054560;28;20240;-57
2022/01/24 02:36:58;;;;;;;23.53;13.13;;;;;;;-1.99;100.00;96718.44;5069718;28;20209;-60
2022/01/24 02:50:02;;;;;;;17.87;11.13;;;;;;;-1.82;100.00;96715.22;5054915;28;20196;-55
2022/01/24 02:52:28;;;;;;;19.87;11.50;;;;;;;-1.83;100.00;96708.25;5069476;28;20193;-57
2022/01/24 02:54:53;;;;;;;18.70;10.80;;;;;;;-1.86;100.00;96703.50;5069321;28;20297;-58
2022/01/24 02:57:20;;;;;;;20.53;11.07;;;;;;;-1.88;100.00;96705.66;5053457;28;20265;-58
2022/01/24 02:59:46;;;;;;;24.80;10.70;;;;;;;-1.92;100.00;96705.47;5069845;28;20208;-57
2022/01/24 03:02:11;;;;;;;20.40;10.60;;;;;;;-1.95;100.00;96699.91;5069706;28;20197;-57
2022/01/24 03:04:36;;;;;;;16.60;10.80;;;;;;;-1.99;100.00;96696.22;5069730;28;20213;-58
2022/01/24 03:07:02;;;;;;;18.70;11.40;;;;;;;-2.04;100.00;96681.03;5069881;28;20259;-58
2022/01/24 03:09:27;;;;;;;17.63;10.07;;;;;;;-2.07;100.00;96691.53;5069264;28;20201;-59
2022/01/24 03:12:24;;;;;;;17.67;10.70;;;;;;;-2.08;100.00;96690.72;5069316;28;20208;-66
2022/01/24 03:14:39;;;;;;;19.87;10.33;;;;;;;-2.09;100.00;96691.00;5053600;28;20216;-66
2022/01/24 03:17:06;;;;;;;17.30;10.93;;;;;;;-2.13;100.00;96687.34;5069115;28;20206;-66
2022/01/24 03:19:33;;;;;;;18.27;10.63;;;;;;;-2.14;100.00;96693.78;5069110;28;20202;-67
2022/01/24 03:21:58;;;;;;;19.00;10.63;;;;;;;-2.17;100.00;96686.31;5069233;28;20288;-67
2022/01/24 03:24:24;;;;;;;18.27;10.60;;;;;;;-2.18;100.00;96684.75;5069589;28;20356;-66
2022/01/24 03:26:49;;;;;;;19.40;11.37;;;;;;;-2.22;100.00;96686.41;5069031;28;20336;-60
2022/01/24 03:29:15;;;;;;;20.37;11.93;;;;;;;-2.24;100.00;96680.53;5069101;28;20214;-65
2022/01/24 03:31:42;;;;;;;18.83;11.30;;;;;;;-2.24;100.00;96675.19;5069411;28;20209;-67
2022/01/24 03:34:08;;;;;;;21.13;12.30;;;;;;;-2.29;100.00;96680.63;5069223;28;20198;-64
2022/01/24 03:36:34;;;;;;;19.83;11.60;;;;;;;-2.31;100.00;96680.13;5068468;28;20205;-64
2022/01/24 03:38:59;;;;;;;19.50;11.37;;;;;;;-2.31;100.00;96680.13;5068586;28;20659;-65
2022/01/24 03:41:24;;;;;;;17.90;10.90;;;;;;;-2.30;100.00;96677.16;5068780;28;20292;-65
2022/01/24 03:43:50;;;;;;;20.53;11.10;;;;;;;-2.31;100.00;96669.41;5072187;28;20320;-65
2022/01/24 03:48:50;;;;;;;19.40;11.13;;;;;;;-2.38;100.00;96668.97;5057058;28;20225;-61
2022/01/24 03:51:16;;;;;;;22.27;11.37;;;;;;;-2.39;100.00;96664.72;5072623;28;20232;-61
2022/01/24 03:53:43;;;;;;;18.60;10.57;;;;;;;-2.40;100.00;96665.81;5071777;28;20185;-61
2022/01/24 03:56:09;;;;;;;19.07;11.40;;;;;;;-2.40;100.00;96658.59;5072730;28;20201;-61
2022/01/24 03:58:35;;;;;;;23.50;11.67;;;;;;;-2.41;100.00;96665.03;5072306;28;20205;-62
2022/01/24 04:01:01;;;;;;;21.10;11.53;;;;;;;-2.40;100.00;96655.13;5072519;28;20214;-61
2022/01/24 04:03:27;;;;;;;18.00;10.97;;;;;;;-2.39;100.00;96656.72;5055190;28;20201;-58
2022/01/24 04:05:52;;;;;;;18.37;10.77;;;;;;;-2.39;100.00;96652.16;5072221;28;20256;-64
2022/01/24 04:08:18;;;;;;;18.37;11.30;;;;;;;-2.39;100.00;96654.03;5071947;28;20288;-58
2022/01/24 04:10:47;;;;;;;19.87;11.93;;;;;;;-2.41;100.00;96659.66;5071820;28;20248;-58
2022/01/24 04:13:36;;;;;;;18.27;10.97;;;;;;;-2.43;100.00;96655.69;5072116;28;20202;-59
2022/01/24 04:18:43;;;;;;;18.70;11.00;;;;;;;-2.45;100.00;96647.97;5056118;28;20216;-58
2022/01/24 04:21:27;;;;;;;20.67;11.77;;;;;;;-2.46;100.00;96654.41;5071905;28;20201;-59
2022/01/24 04:24:03;;;;;;;18.97;11.23;;;;;;;-2.47;100.00;96654.69;5071837;28;20224;-59
2022/01/24 04:26:29;;;;;;;18.37;10.70;;;;;;;-2.50;100.00;96640.03;5071937;28;20213;-52
2022/01/24 04:28:55;;;;;;;18.83;10.57;;;;;;;-2.52;100.00;96641.41;5071531;28;20214;-53
2022/01/24 04:31:22;;;;;;;19.10;10.77;;;;;;;-2.54;100.00;96644.38;5071391;28;20198;-52
2022/01/24 04:33:48;;;;;;;19.70;11.43;;;;;;;-2.53;100.00;96655.84;5071311;28;20206;-54
2022/01/24 04:36:13;;;;;;;20.27;11.30;;;;;;;-2.55;100.00;96652.69;5071760;28;20220;-54
2022/01/24 04:38:39;;;;;;;18.90;10.90;;;;;;;-2.53;100.00;96661.19;5071266;28;20189;-54
2022/01/24 04:41:13;;;;;;;19.73;11.60;;;;;;;-2.56;100.00;96656.44;5056069;28;20272;-58
2022/01/24 04:43:56;;;;;;;18.53;10.63;;;;;;;-2.58;100.00;96653.25;5071128;28;20216;-64
2022/01/24 04:54:40;;;;;;;21.70;11.63;;;;;;;-2.62;100.00;96657.59;5054826;28;20166;-64
2022/01/24 04:57:08;;;;;;;20.40;11.60;;;;;;;-2.65;100.00;96666.19;5071548;28;20204;-65
2022/01/24 04:59:33;;;;;;;19.27;10.70;;;;;;;-2.66;100.00;96653.91;5071472;28;20197;-58
2022/01/24 05:01:59;;;;;;;20.17;11.83;;;;;;;-2.70;100.00;96653.66;5071067;28;20197;-60
2022/01/24 05:04:25;;;;;;;20.00;11.27;;;;;;;-2.73;100.00;96656.13;5071079;28;20232;-59
2022/01/24 05:06:50;;;;;;;20.57;11.20;;;;;;;-2.74;100.00;96654.56;5071059;28;20201;-59
2022/01/24 05:09:17;;;;;;;21.17;11.60;;;;;;;-2.75;100.00;96660.97;5071005;28;20194;-58
2022/01/24 05:11:54;;;;;;;19.73;11.30;;;;;;;-2.75;100.00;96666.31;5071204;28;20263;-58
2022/01/24 05:25:17;;;;;;;20.17;11.47;;;;;;;-2.80;100.00;96666.38;5055715;28;20209;-64
2022/01/24 05:27:43;;;;;;;18.90;10.70;;;;;;;-2.81;100.00;96673.59;5071239;28;20200;-65
2022/01/24 05:30:11;;;;;;;23.70;11.93;;;;;;;-2.83;100.00;96677.63;5070613;28;20206;-64
2022/01/24 05:32:36;;;;;;;20.13;11.50;;;;;;;-2.85;100.00;96675.25;5071331;28;20182;-63
2022/01/24 05:35:03;;;;;;;19.70;11.23;;;;;;;-2.86;100.00;96673.66;5070850;28;20201;-56
2022/01/24 05:37:29;;;;;;;20.97;11.50;;;;;;;-2.85;100.00;96679.81;5070888;28;20198;-56
2022/01/24 05:39:54;;;;;;;20.87;11.63;;;;;;;-2.87;100.00;96685.44;5071065;28;20212;-64
2022/01/24 05:42:21;;;;;;;19.80;11.97;;;;;;;-2.87;100.00;96687.31;5070391;28;20284;-67
2022/01/24 05:44:50;;;;;;;18.63;10.77;;;;;;;-2.89;100.00;96689.44;5070326;28;20216;-64
2022/01/24 05:47:16;;;;;;;19.23;11.27;;;;;;;-2.90;100.00;96687.88;5070196;28;20194;-63
2022/01/24 05:49:42;;;;;;;20.83;11.37;;;;;;;-2.93;100.00;96688.44;5070639;28;20197;-63
2022/01/24 05:52:09;;;;;;;19.77;11.87;;;;;;;-2.94;100.00;96676.16;5070272;28;20209;-63
2022/01/24 05:54:41;;;;;;;21.03;11.50;;;;;;;-2.94;100.00;96679.66;5070081;28;20212;-58
2022/01/24 05:57:07;;;;;;;21.27;11.33;;;;;;;-2.94;100.00;96676.97;5070484;28;20204;-59
2022/01/24 05:59:33;;;;;;;19.43;11.30;;;;;;;-2.95;100.00;96678.03;5069953;28;20265;-58
2022/01/24 06:01:58;;;;;;;20.20;12.47;;;;;;;-2.90;100.00;96674.50;5069850;28;20259;-58
2022/01/24 06:04:24;;;;;;;22.67;12.20;;;;;;;-2.91;100.00;96676.41;5070258;28;20300;-58
2022/01/24 06:06:49;;;;;;;23.10;12.03;;;;;;;-2.92;100.00;96674.78;5070551;28;20229;-59
2022/01/24 06:09:15;;;;;;;19.13;11.43;;;;;;;-2.92;100.00;96682.03;5069697;28;20224;-58
2022/01/24 06:11:40;;;;;;;21.63;11.43;;;;;;;-2.92;100.00;96680.13;5069967;28;20229;-59
2022/01/24 06:14:06;;;;;;;21.57;11.83;;;;;;;-2.93;100.00;96673.22;5070010;28;20202;-55
2022/01/24 06:16:31;;;;;;;22.47;12.10;;;;;;;-2.90;100.00;96666.50;5069630;28;20194;-57
2022/01/24 06:18:56;;;;;;;22.43;12.47;;;;;;;-2.90;100.00;96674.50;5069478;28;20198;-57
2022/01/24 06:21:22;;;;;;;24.40;12.60;;;;;;;-2.91;100.00;96676.41;5069786;28;20190;-58
2022/01/24 06:23:48;;;;;;;21.93;12.50;;;;;;;-2.90;100.00;96672.66;5069544;28;20201;-58
2022/01/24 06:26:14;;;;;;;23.13;12.37;;;;;;;-2.90;100.00;96679.84;5069885;28;20244;-56
2022/01/24 06:28:40;;;;;;;22.80;11.87;;;;;;;-2.88;100.00;96688.41;5069863;28;20277;-55
2022/01/24 06:31:05;;;;;;;23.83;11.50;;;;;;;-2.87;100.00;96687.31;5069440;28;20213;-61
2022/01/24 06:33:30;;;;;;;25.53;11.90;;;;;;;-2.87;100.00;96692.66;5070015;28;20267;-59
2022/01/24 06:35:56;;;;;;;22.93;12.10;;;;;;;-2.86;100.00;96691.56;5070063;28;20209;-59
2022/01/24 06:38:21;;;;;;;24.50;11.73;;;;;;;-2.87;100.00;96698.78;5069834;28;20215;-60
2022/01/24 06:40:47;;;;;;;23.57;11.83;;;;;;;-2.88;100.00;96691.84;5069581;28;20269;-58
2022/01/24 06:43:12;;;;;;;23.27;11.90;;;;;;;-2.85;100.00;96701.19;5069570;28;20209;-58
2022/01/24 06:45:37;;;;;;;20.73;11.67;;;;;;;-2.86;100.00;96697.72;5053788;28;20281;-59
2022/01/24 06:48:03;;;;;;;21.93;12.20;;;;;;;-2.84;100.00;96697.44;5069930;28;20265;-59
2022/01/24 06:50:28;;;;;;;20.80;11.37;;;;;;;-2.81;100.00;96707.53;5069412;28;20304;-62
2022/01/24 06:52:54;;;;;;;20.57;11.53;;;;;;;-2.78;100.00;96698.94;5069507;28;20198;-62
2022/01/24 06:55:19;;;;;;;24.83;12.70;;;;;;;-2.74;100.00;96710.66;5069109;28;20294;-61
2022/01/24 06:57:44;;;;;;;21.70;11.60;;;;;;;-2.73;100.00;96717.59;5069913;28;20212;-62
2022/01/24 07:00:10;;;;;;;19.83;11.60;;;;;;;-2.69;100.00;96716.75;5069238;28;20202;-62
2022/01/24 07:02:36;;;;;;;24.70;12.73;;;;;;;-2.64;100.00;96710.50;5053066;28;20206;-62
2022/01/24 07:05:01;;;;;;;28.17;15.23;;;;;;;-2.60;100.00;96714.19;5069175;28;20202;-63
2022/01/24 07:07:28;;;;;;;28.00;15.40;;;;;;;-2.54;100.00;96718.41;5069289;28;20198;-56
2022/01/24 07:09:54;;;;;;;27.40;13.57;;;;;;;-2.44;100.00;96728.97;5069442;28;20217;-58
2022/01/24 07:12:19;;;;;;;27.07;13.70;;;;;;;-2.35;100.00;96727.25;5069296;28;20209;-57
2022/01/24 07:14:45;;;;;;;25.03;12.97;;;;;;;-2.24;100.00;96718.00;5068778;28;20209;-58
2022/01/24 07:19:35;;;;;;;25.63;12.97;;;;;;;-2.03;100.00;96716.63;5057129;28;20280;-58
2022/01/24 07:22:04;;;;;;;23.03;13.07;;;;;;;-1.93;100.00;96729.84;5072336;28;20655;-58
2022/01/24 07:24:30;;;;;;;24.50;13.17;;;;;;;-1.85;100.00;96727.31;5072286;28;20221;-59
2022/01/24 07:26:55;;;;;;;27.57;13.23;;;;;;;-1.76;100.00;96735.44;5072103;28;20212;-57
2022/01/24 07:29:21;;;;;;;25.50;13.47;;;;;;;-1.67;100.00;96731.81;5072473;28;20205;-55
2022/01/24 07:31:46;;;;;;;26.30;14.43;;;;;;;-1.54;100.00;96730.25;5055784;28;20213;-53
2022/01/24 07:34:13;;;;;;;25.57;13.80;;;;;;;-1.49;100.00;96725.63;5072834;28;20174;-54
2022/01/24 07:36:38;;;;;;;22.47;13.10;;;;;;;-1.41;100.00;96729.53;5072766;28;20290;-55
2022/01/24 07:39:04;;;;;;;23.47;13.10;;;;;;;-1.38;100.00;96726.25;5072634;28;20240;-56
2022/01/24 07:41:31;;;;;;;26.10;13.60;;;;;;;-1.36;100.00;96729.41;5071866;28;20198;-55
2022/01/24 07:43:57;;;;;;;20.73;12.57;;;;;;;-1.29;100.00;96724.47;5071527;28;20217;-65
2022/01/24 07:46:23;;;;;;;23.53;13.47;;;;;;;-1.20;100.00;96738.78;5071981;28;20205;-59
2022/01/24 07:48:48;;;;;;;24.77;13.67;;;;;;;-1.12;100.00;96736.25;5072237;28;20232;-68
2022/01/24 07:51:15;;;;;;;23.97;13.27;;;;;;;-1.10;100.00;96746.63;5072320;28;20193;-67
2022/01/24 07:53:41;;;;;;;20.97;12.47;;;;;;;-1.01;100.00;96742.19;5056668;28;20210;-67
2022/01/24 07:56:06;;;;;;;21.83;13.30;;;;;;;-0.98;100.00;96746.97;5072455;28;20206;-67
2022/01/24 07:58:32;;;;;;;19.83;11.67;;;;;;;-0.97;100.00;96744.00;5072495;28;20209;-67
2022/01/24 08:00:58;;;;;;;22.90;12.60;;;;;;;-0.93;100.00;96749.53;5072047;28;20209;-67
2022/01/24 08:03:23;;;;;;;23.13;12.77;;;;;;;-0.93;100.00;96745.00;5071889;28;20293;-58
2022/01/24 08:05:49;;;;;;;22.27;12.70;;;;;;;-0.90;100.00;96743.59;5071356;28;20304;-57
2022/01/24 08:08:15;;;;;;;26.10;13.97;;;;;;;-0.81;100.00;96741.78;5056036;28;20200;-57
2022/01/24 08:10:40;;;;;;;20.33;11.97;;;;;;;-0.69;100.00;96739.44;5072135;28;20256;-57
2022/01/24 08:13:06;;;;;;;18.70;11.73;;;;;;;-0.69;100.00;96729.47;5071902;28;20208;-58
2022/01/24 08:15:32;;;;;;;22.33;13.00;;;;;;;-0.51;100.00;96736.63;5071961;28;20198;-57
2022/01/24 08:17:58;;;;;;;23.90;13.43;;;;;;;-0.32;100.00;96739.19;5071360;28;20206;-57
2022/01/24 08:20:24;;;;;;;20.47;13.13;;;;;;;-0.18;100.00;96739.97;5071483;28;20197;-62
2022/01/24 08:22:50;;;;;;;23.20;12.23;;;;;;;-0.15;100.00;96744.72;5071888;28;20210;-58
2022/01/24 08:25:17;;;;;;;22.83;13.40;;;;;;;0.00;100.00;96752.47;5071491;28;20218;-54
2022/01/24 08:27:43;;;;;;;22.87;12.67;;;;;;;0.12;100.00;96755.41;5071428;28;20206;-57
2022/01/24 08:30:12;;;;;;;22.23;13.87;;;;;;;0.30;100.00;96757.13;5070410;28;20207;-55
2022/01/24 08:32:37;;;;;;;25.07;13.03;;;;;;;0.36;100.00;96755.91;5071680;28;20201;-55
2022/01/24 08:35:04;;;;;;;23.43;13.40;;;;;;;0.43;100.00;96756.25;5071805;28;20205;-58
2022/01/24 08:37:30;;;;;;;21.43;12.90;;;;;;;0.39;100.00;96760.66;5071724;28;20212;-55
2022/01/24 08:39:58;;;;;;;23.27;13.33;;;;;;;0.39;100.00;96759.88;5071867;28;20250;-59
2022/01/24 08:47:21;;;;;;;32.13;16.70;;;;;;;0.54;100.00;96757.59;5055806;28;20196;-57
2022/01/24 08:49:47;;;;;;;31.37;15.23;;;;;;;0.52;100.00;96759.81;5071296;28;20212;-57
2022/01/24 08:52:12;;;;;;;23.63;13.33;;;;;;;0.67;100.00;96761.34;5071385;28;20204;-57
2022/01/24 08:54:37;;;;;;;27.07;13.43;;;;;;;0.67;100.00;96766.72;5071206;28;20258;-57
2022/01/24 08:57:03;;;;;;;22.77;12.47;;;;;;;0.56;100.00;96771.53;5071159;28;20203;-58
2022/01/24 08:59:31;;;;;;;24.07;12.77;;;;;;;0.36;100.00;96766.63;5071525;28;20338;-58
2022/01/24 09:01:57;;;;;;;28.67;13.37;;;;;;;0.48;100.00;96763.41;5055499;28;20176;-66
2022/01/24 09:04:23;;;;;;;22.60;12.13;;;;;;;0.46;100.00;96769.09;5071315;28;20226;-66
2022/01/24 09:06:48;;;;;;;27.60;13.07;;;;;;;0.34;100.00;96778.78;5071026;28;20198;-66
2022/01/24 09:09:15;;;;;;;21.30;11.87;;;;;;;0.32;100.00;96771.03;5071089;28;20613;-66
2022/01/24 09:11:40;;;;;;;24.37;11.90;;;;;;;0.29;100.00;96771.63;5070822;28;20207;-66
2022/01/24 09:14:07;;;;;;;24.40;13.03;;;;;;;0.35;100.00;96775.81;5071242;28;20212;-64
2022/01/24 09:16:33;;;;;;;28.20;14.10;;;;;;;0.37;100.00;96770.94;5070734;28;20209;-58
2022/01/24 09:18:58;;;;;;;26.73;13.37;;;;;;;0.45;100.00;96783.63;5070740;28;20201;-57
2022/01/24 09:21:26;;;;;;;22.50;12.53;;;;;;;0.45;100.00;96775.56;5070770;28;20208;-55
2022/01/24 09:23:51;;;;;;;28.83;14.10;;;;;;;0.21;100.00;96791.16;5070506;28;20207;-57
2022/01/24 09:26:18;;;;;;;29.17;13.03;;;;;;;0.41;100.00;96785.34;5070312;28;20203;-55
2022/01/24 09:28:43;;;;;;;27.63;13.60;;;;;;;0.31;100.00;96785.56;5070462;28;20248;-57
2022/01/24 09:31:08;;;;;;;26.23;13.70;;;;;;;0.51;100.00;96779.72;5070928;28;20204;-57
2022/01/24 09:33:34;;;;;;;23.80;13.53;;;;;;;0.58;100.00;96787.38;5070464;28;20170;-58
2022/01/24 09:36:00;;;;;;;23.83;12.47;;;;;;;0.68;100.00;96790.59;5070529;28;20203;-58
2022/01/24 09:38:29;;;;;;;30.33;15.67;;;;;;;0.81;100.00;96789.75;5070911;28;20208;-66
2022/01/24 09:40:55;;;;;;;25.83;13.40;;;;;;;0.67;100.00;96788.22;5070342;28;20199;-63
2022/01/24 09:43:21;;;;;;;22.23;12.20;;;;;;;0.57;100.00;96794.63;5070224;28;20785;-65
2022/01/24 09:45:46;;;;;;;23.30;12.73;;;;;;;0.41;100.00;96796.09;5070114;28;20242;-64
2022/01/24 09:48:13;;;;;;;21.03;11.40;;;;;;;0.51;100.00;96795.81;5070478;28;20265;-63
2022/01/24 09:50:39;;;;;;;23.20;12.60;;;;;;;0.60;100.00;96799.38;5070859;28;20210;-65
2022/01/24 09:53:04;;;;;;;21.87;11.63;;;;;;;0.64;100.00;96800.38;5070369;28;20203;-60
2022/01/24 09:55:29;;;;;;;22.47;11.60;;;;;;;0.73;100.00;96803.13;5070321;28;20203;-56
2022/01/24 09:57:55;;;;;;;22.67;11.87;;;;;;;0.71;100.00;96803.44;5070186;28;20235;-56
2022/01/24 10:00:24;;;;;;;28.50;13.00;;;;;;;0.70;100.00;96793.78;5070216;28;20203;-55
2022/01/24 10:02:50;;;;;;;22.43;12.30;;;;;;;0.89;100.00;96793.56;5070671;28;20258;-55
2022/01/24 10:05:19;;;;;;;21.33;12.27;;;;;;;0.82;100.00;96801.28;5069627;28;20220;-55
2022/01/24 10:07:56;;;;;;;23.27;12.33;;;;;;;0.93;100.00;96803.41;5053381;28;20371;-55
2022/01/24 10:10:34;;;;;;;25.43;12.97;;;;;;;1.09;100.00;96807.28;5053193;28;20221;-54
2022/01/24 10:16:24;;;;;;;20.67;11.90;;;;;;;1.11;100.00;96802.41;5054903;28;20283;-62
2022/01/24 10:18:57;;;;;;;20.20;12.13;;;;;;;1.25;100.00;96803.13;5070071;28;20256;-57
2022/01/24 10:21:22;;;;;;;21.30;11.77;;;;;;;1.34;100.00;96795.88;5070507;28;20205;-57
2022/01/24 10:23:47;;;;;;;20.53;11.60;;;;;;;1.57;100.00;96802.00;5069666;28;20224;-58
2022/01/24 10:26:13;;;;;;;19.47;11.57;;;;;;;1.41;100.00;96804.31;5069811;28;20316;-57
2022/01/24 10:28:44;;;;;;;17.77;10.43;;;;;;;1.57;100.00;96808.16;5069614;28;20201;-58
2022/01/24 10:31:19;;;;;;;17.53;10.10;;;;;;;1.85;100.00;96796.06;5065647;28;20208;-58
2022/01/24 10:33:58;;;;;;;18.10;10.43;;;;;;;1.91;100.00;96791.34;5069547;28;20291;-53
2022/01/24 10:36:33;;;;;;;18.03;10.33;;;;;;;1.87;100.00;96796.56;5053674;28;20265;-54
2022/01/24 10:39:12;;;;;;;20.47;10.60;;;;;;;1.86;100.00;96784.19;5070105;28;20205;-54
2022/01/24 10:41:59;;;;;;;16.63;10.20;;;;;;;2.22;100.00;96789.34;5070068;28;20201;-57
2022/01/24 10:44:33;;;;;;;18.37;10.70;;;;;;;2.00;100.00;96790.25;5069614;28;20235;-56
2022/01/24 10:47:19;;;;;;;16.87;9.83;;;;;;;2.16;100.00;96794.09;5069590;28;20198;-57
2022/01/24 10:49:46;;;;;;;13.93;9.37;;;;;;;2.10;100.00;96784.56;5069556;28;20284;-57
2022/01/24 10:52:23;;;;;;;17.13;11.27;;;;;;;2.46;100.00;96787.78;5068681;28;20255;-59
2022/01/24 10:54:51;;;;;;;23.77;12.73;;;;;;;2.60;100.00;96776.81;5069077;28;20335;-59
2022/01/24 10:57:28;;;;;;;23.50;13.17;;;;;;;2.67;100.00;96779.84;5069711;28;20206;-59
2022/01/24 11:00:29;;;;;;;22.43;12.67;;;;;;;2.96;100.00;96788.81;5053899;28;20198;-59
2022/01/24 11:02:57;;;;;;;22.07;13.13;;;;;;;2.76;100.00;96781.41;4995646;28;20214;-59
2022/01/24 11:05:26;;;;;;;22.27;13.27;;;;;;;2.57;100.00;96786.34;5057501;28;20271;-58
2022/01/24 11:07:59;;;;;;;22.57;12.60;;;;;;;2.59;100.00;96778.72;5069170;28;20205;-64
2022/01/24 11:10:28;;;;;;;21.03;12.43;;;;;;;2.71;100.00;96784.28;5053654;28;20204;-63
2022/01/24 11:12:53;;;;;;;24.23;13.47;;;;;;;2.77;100.00;96783.00;5068968;28;20186;-63
2022/01/24 11:15:20;;;;;;;21.70;12.33;;;;;;;2.30;100.00;96786.63;5068758;28;20201;-62
2022/01/24 11:17:47;;;;;;;21.13;12.57;;;;;;;2.48;100.00;96773.97;5069017;28;20242;-62
2022/01/24 11:20:16;;;;;;;21.60;12.27;;;;;;;2.53;100.00;96763.84;5068747;28;20190;-63
2022/01/24 11:22:58;;;;;;;21.63;13.93;;;;;;;2.67;100.00;96766.34;5068841;28;20189;-65
2022/01/24 11:25:24;;;;;;;20.87;11.67;;;;;;;2.74;100.00;96766.66;5068900;28;20220;-53
2022/01/24 11:27:50;;;;;;;21.23;12.90;;;;;;;2.58;100.00;96758.25;5068969;28;20606;-59
2022/01/24 11:30:40;;;;;;;19.30;11.80;;;;;;;2.83;100.00;96759.34;5068822;28;20298;-54
2022/01/24 11:33:12;;;;;;;20.07;12.70;;;;;;;2.76;100.00;96761.72;5068553;28;20186;-57
2022/01/24 11:35:39;;;;;;;20.63;13.20;;;;;;;2.60;100.00;96764.16;5068763;28;20249;-61
2022/01/24 11:38:31;;;;;;;21.77;14.17;;;;;;;2.75;100.00;96765.53;5068796;28;20196;-62
2022/01/24 11:41:01;;;;;;;19.97;12.47;;;;;;;3.16;100.00;96760.38;5068945;28;20247;-60
2022/01/24 11:43:29;;;;;;;19.67;12.10;;;;;;;3.20;100.00;96759.41;5052394;28;20668;-57
2022/01/24 11:46:03;;;;;;;18.00;11.43;;;;;;;3.11;100.00;96763.25;5068786;28;20279;-63
2022/01/24 11:48:29;;;;;;;22.23;12.97;;;;;;;3.08;100.00;96762.00;5068596;28;20201;-62
2022/01/24 11:51:10;;;;;;;17.70;11.60;;;;;;;3.10;100.00;96756.28;5068727;28;20201;-63
2022/01/24 11:53:43;;;;;;;22.50;12.20;;;;;;;3.03;100.00;96767.56;5068525;28;20279;-61
2022/01/24 11:56:27;;;;;;;20.07;12.37;;;;;;;2.98;100.00;96751.53;5069153;28;20197;-64
2022/01/24 11:59:19;;;;;;;18.67;12.03;;;;;;;2.97;100.00;96749.97;5068440;28;20186;-64
2022/01/24 12:01:46;;;;;;;19.63;12.23;;;;;;;2.98;100.00;96748.03;5046773;28;20666;-60
2022/01/24 12:04:11;;;;;;;17.63;10.23;;;;;;;2.70;100.00;96744.16;5070713;28;20209;-56
2022/01/24 12:07:16;;;;;;;18.40;11.30;;;;;;;2.72;100.00;96741.91;5071412;28;20182;-58
2022/01/24 12:09:41;;;;;;;20.00;11.63;;;;;;;2.56;100.00;96741.63;5040042;28;20205;-56
2022/01/24 12:12:38;;;;;;;20.07;12.40;;;;;;;2.42;100.00;96743.69;5071934;28;20281;-56
2022/01/24 12:15:04;;;;;;;21.50;12.93;;;;;;;2.55;100.00;96742.72;5071785;28;20200;-55
2022/01/24 12:17:51;;;;;;;18.97;12.03;;;;;;;2.68;100.00;96733.69;5071653;28;20288;-56
2022/01/24 12:20:31;;;;;;;24.47;12.67;;;;;;;2.75;100.00;96730.50;5071736;28;20198;-62
2022/01/24 12:23:17;;;;;;;23.13;13.00;;;;;;;2.70;100.00;96722.59;5054921;28;20216;-56
2022/01/24 12:26:25;;;;;;;22.30;13.10;;;;;;;2.78;100.00;96724.47;5055009;28;20236;-53
2022/01/24 12:29:04;;;;;;;21.07;12.63;;;;;;;2.72;100.00;96726.53;5046657;28;20220;-56
2022/01/24 12:31:42;;;;;;;18.10;11.20;;;;;;;2.73;100.00;96728.13;5055533;28;20193;-55
2022/01/24 12:34:13;;;;;;;21.53;12.70;;;;;;;2.82;100.00;96725.41;5071489;28;20198;-56
2022/01/24 12:39:20;;;;;;;21.60;12.77;;;;;;;3.07;100.00;96728.03;5055900;28;20228;-57
2022/01/24 12:41:58;;;;;;;18.43;11.70;;;;;;;3.11;100.00;96718.19;5054671;28;20182;-56
2022/01/24 12:47:15;;;;;;;15.47;10.10;;;;;;;3.03;100.00;96727.09;5055774;28;20166;-54
2022/01/24 12:49:41;;;;;;;17.83;10.77;;;;;;;2.98;100.00;96715.69;5071922;28;20192;-54
2022/01/24 12:52:12;;;;;;;16.77;10.50;;;;;;;2.97;100.00;96716.78;5071807;28;20221;-54
2022/01/24 12:54:44;;;;;;;18.33;11.67;;;;;;;3.00;100.00;96719.66;5071114;28;20221;-51
2022/01/24 12:57:14;;;;;;;17.00;11.27;;;;;;;3.06;100.00;96718.34;5071588;28;20655;-62
2022/01/24 12:59:51;;;;;;;20.07;12.30;;;;;;;3.19;100.00;96714.66;5071087;28;20193;-60
2022/01/24 13:02:23;;;;;;;21.80;13.23;;;;;;;3.23;100.00;96710.22;5071037;28;20197;-58
2022/01/24 13:04:51;;;;;;;23.10;13.57;;;;;;;3.20;100.00;96705.44;5071063;28;20213;-58
2022/01/24 13:07:16;;;;;;;21.77;13.00;;;;;;;3.25;100.00;96707.97;5071226;28;20217;-58